sensor_id;sensor_type;location;lat;lon;timestamp;P1;durP1;ratioP1;P2;durP2;ratioP2
13048;SDS011;6591;51.446;5.404;2022-12-18T00:01:29;30.93;;;17.10;;
13048;SDS011;6591;51.446;5.404;2022-12-18T00:04:00;32.30;;;17.10;;
13048;SDS011;6591;51.446;5.404;2022-12-18T00:06:34;29.93;;;16.13;;
13048;SDS011;6591;51.446;5.404;2022-12-18T00:09:02;29.30;;;15.60;;
13048;SDS011;6591;51.446;5.404;2022-12-18T00:11:30;33.20;;;16.47;;
13048;SDS011;6591;51.446;5.404;2022-12-18T00:13:58;31.83;;;17.13;;
13048;SDS011;6591;51.446;5.404;2022-12-18T00:16:27;32.53;;;16.20;;
13048;SDS011;6591;51.446;5.404;2022-12-18T00:18:57;30.13;;;16.70;;
13048;SDS011;6591;51.446;5.404;2022-12-18T00:21:26;32.90;;;16.33;;
13048;SDS011;6591;51.446;5.404;2022-12-18T00:23:58;31.23;;;16.80;;
13048;SDS011;6591;51.446;5.404;2022-12-18T00:26:28;30.07;;;16.27;;
13048;SDS011;6591;51.446;5.404;2022-12-18T00:29:01;31.50;;;16.43;;
13048;SDS011;6591;51.446;5.404;2022-12-18T00:31:32;27.93;;;15.90;;
13048;SDS011;6591;51.446;5.404;2022-12-18T00:34:00;34.83;;;17.87;;
13048;SDS011;6591;51.446;5.404;2022-12-18T00:36:30;34.07;;;16.63;;
13048;SDS011;6591;51.446;5.404;2022-12-18T00:39:00;29.77;;;16.90;;
13048;SDS011;6591;51.446;5.404;2022-12-18T00:41:30;30.13;;;17.13;;
13048;SDS011;6591;51.446;5.404;2022-12-18T00:44:16;27.10;;;15.83;;
13048;SDS011;6591;51.446;5.404;2022-12-18T00:46:46;28.40;;;16.33;;
13048;SDS011;6591;51.446;5.404;2022-12-18T00:49:14;26.47;;;15.13;;
13048;SDS011;6591;51.446;5.404;2022-12-18T00:51:45;27.73;;;15.73;;
13048;SDS011;6591;51.446;5.404;2022-12-18T00:54:12;28.67;;;15.70;;
13048;SDS011;6591;51.446;5.404;2022-12-18T00:56:39;27.57;;;15.67;;
13048;SDS011;6591;51.446;5.404;2022-12-18T00:59:14;30.17;;;15.93;;
13048;SDS011;6591;51.446;5.404;2022-12-18T01:01:42;28.93;;;16.30;;
13048;SDS011;6591;51.446;5.404;2022-12-18T01:04:10;28.23;;;15.70;;
13048;SDS011;6591;51.446;5.404;2022-12-18T01:06:37;33.57;;;15.90;;
13048;SDS011;6591;51.446;5.404;2022-12-18T01:09:05;28.87;;;15.73;;
13048;SDS011;6591;51.446;5.404;2022-12-18T01:11:35;33.13;;;16.10;;
13048;SDS011;6591;51.446;5.404;2022-12-18T01:14:03;29.87;;;16.13;;
13048;SDS011;6591;51.446;5.404;2022-12-18T01:16:30;27.87;;;16.07;;
13048;SDS011;6591;51.446;5.404;2022-12-18T01:18:57;30.80;;;16.97;;
13048;SDS011;6591;51.446;5.404;2022-12-18T01:21:26;30.77;;;15.60;;
13048;SDS011;6591;51.446;5.404;2022-12-18T01:23:54;30.23;;;15.77;;
13048;SDS011;6591;51.446;5.404;2022-12-18T01:26:23;31.27;;;15.67;;
13048;SDS011;6591;51.446;5.404;2022-12-18T01:28:51;29.10;;;16.00;;
13048;SDS011;6591;51.446;5.404;2022-12-18T01:31:23;29.87;;;15.80;;
13048;SDS011;6591;51.446;5.404;2022-12-18T01:33:54;32.13;;;15.67;;
13048;SDS011;6591;51.446;5.404;2022-12-18T01:36:26;27.93;;;15.33;;
13048;SDS011;6591;51.446;5.404;2022-12-18T01:38:56;26.53;;;16.97;;
13048;SDS011;6591;51.446;5.404;2022-12-18T01:41:30;25.87;;;14.37;;
13048;SDS011;6591;51.446;5.404;2022-12-18T01:47:48;28.90;;;15.50;;
13048;SDS011;6591;51.446;5.404;2022-12-18T01:50:27;27.97;;;15.27;;
13048;SDS011;6591;51.446;5.404;2022-12-18T01:53:21;29.07;;;15.37;;
13048;SDS011;6591;51.446;5.404;2022-12-18T01:55:50;25.70;;;14.70;;
13048;SDS011;6591;51.446;5.404;2022-12-18T01:58:41;25.63;;;14.47;;
13048;SDS011;6591;51.446;5.404;2022-12-18T02:01:34;28.97;;;15.00;;
13048;SDS011;6591;51.446;5.404;2022-12-18T02:06:55;27.77;;;14.07;;
13048;SDS011;6591;51.446;5.404;2022-12-18T02:12:35;26.00;;;15.40;;
13048;SDS011;6591;51.446;5.404;2022-12-18T02:15:39;26.13;;;14.33;;
13048;SDS011;6591;51.446;5.404;2022-12-18T02:18:48;21.47;;;13.07;;
13048;SDS011;6591;51.446;5.404;2022-12-18T02:24:26;25.07;;;14.27;;
13048;SDS011;6591;51.446;5.404;2022-12-18T02:27:32;22.80;;;13.27;;
13048;SDS011;6591;51.446;5.404;2022-12-18T02:30:04;24.33;;;13.63;;
13048;SDS011;6591;51.446;5.404;2022-12-18T02:32:35;22.93;;;12.70;;
13048;SDS011;6591;51.446;5.404;2022-12-18T02:35:10;25.90;;;13.03;;
13048;SDS011;6591;51.446;5.404;2022-12-18T02:37:55;23.67;;;13.33;;
13048;SDS011;6591;51.446;5.404;2022-12-18T02:40:26;22.47;;;13.60;;
13048;SDS011;6591;51.446;5.404;2022-12-18T02:43:07;27.30;;;13.37;;
13048;SDS011;6591;51.446;5.404;2022-12-18T02:45:46;26.23;;;14.13;;
13048;SDS011;6591;51.446;5.404;2022-12-18T02:48:22;24.53;;;13.33;;
13048;SDS011;6591;51.446;5.404;2022-12-18T02:51:21;24.30;;;13.07;;
13048;SDS011;6591;51.446;5.404;2022-12-18T02:54:51;23.90;;;13.50;;
13048;SDS011;6591;51.446;5.404;2022-12-18T02:59:54;26.77;;;13.93;;
13048;SDS011;6591;51.446;5.404;2022-12-18T03:02:29;23.50;;;12.93;;
13048;SDS011;6591;51.446;5.404;2022-12-18T03:05:20;23.27;;;12.77;;
13048;SDS011;6591;51.446;5.404;2022-12-18T03:07:58;23.93;;;12.77;;
13048;SDS011;6591;51.446;5.404;2022-12-18T03:10:45;22.13;;;12.50;;
13048;SDS011;6591;51.446;5.404;2022-12-18T03:14:09;22.70;;;13.00;;
13048;SDS011;6591;51.446;5.404;2022-12-18T03:16:25;21.13;;;11.97;;
13048;SDS011;6591;51.446;5.404;2022-12-18T03:19:05;24.33;;;12.27;;
13048;SDS011;6591;51.446;5.404;2022-12-18T03:21:52;22.03;;;12.97;;
13048;SDS011;6591;51.446;5.404;2022-12-18T03:24:24;24.97;;;12.50;;
13048;SDS011;6591;51.446;5.404;2022-12-18T03:27:00;21.73;;;12.83;;
13048;SDS011;6591;51.446;5.404;2022-12-18T03:29:33;20.17;;;11.17;;
13048;SDS011;6591;51.446;5.404;2022-12-18T03:32:12;22.57;;;12.33;;
13048;SDS011;6591;51.446;5.404;2022-12-18T03:34:50;19.30;;;12.00;;
13048;SDS011;6591;51.446;5.404;2022-12-18T03:37:22;25.97;;;13.23;;
13048;SDS011;6591;51.446;5.404;2022-12-18T03:39:50;22.00;;;12.13;;
13048;SDS011;6591;51.446;5.404;2022-12-18T03:42:22;18.80;;;11.63;;
13048;SDS011;6591;51.446;5.404;2022-12-18T03:45:09;18.90;;;11.57;;
13048;SDS011;6591;51.446;5.404;2022-12-18T03:50:59;20.13;;;11.40;;
13048;SDS011;6591;51.446;5.404;2022-12-18T03:53:43;18.77;;;10.97;;
13048;SDS011;6591;51.446;5.404;2022-12-18T03:56:30;18.97;;;11.17;;
13048;SDS011;6591;51.446;5.404;2022-12-18T03:59:04;21.23;;;11.30;;
13048;SDS011;6591;51.446;5.404;2022-12-18T04:01:35;23.57;;;12.43;;
13048;SDS011;6591;51.446;5.404;2022-12-18T04:04:11;22.97;;;11.87;;
13048;SDS011;6591;51.446;5.404;2022-12-18T04:06:43;21.33;;;11.77;;
13048;SDS011;6591;51.446;5.404;2022-12-18T04:09:17;20.87;;;11.77;;
13048;SDS011;6591;51.446;5.404;2022-12-18T04:11:47;25.23;;;12.00;;
13048;SDS011;6591;51.446;5.404;2022-12-18T04:14:15;21.80;;;11.77;;
13048;SDS011;6591;51.446;5.404;2022-12-18T04:16:46;19.00;;;11.87;;
13048;SDS011;6591;51.446;5.404;2022-12-18T04:19:16;17.50;;;11.03;;
13048;SDS011;6591;51.446;5.404;2022-12-18T04:21:46;20.27;;;12.17;;
13048;SDS011;6591;51.446;5.404;2022-12-18T04:24:13;22.93;;;11.93;;
13048;SDS011;6591;51.446;5.404;2022-12-18T04:26:49;21.27;;;12.53;;
13048;SDS011;6591;51.446;5.404;2022-12-18T04:29:21;21.40;;;11.77;;
13048;SDS011;6591;51.446;5.404;2022-12-18T04:31:48;23.47;;;12.77;;
13048;SDS011;6591;51.446;5.404;2022-12-18T04:34:15;20.27;;;11.03;;
13048;SDS011;6591;51.446;5.404;2022-12-18T04:36:49;22.87;;;12.17;;
13048;SDS011;6591;51.446;5.404;2022-12-18T04:39:17;18.87;;;11.10;;
13048;SDS011;6591;51.446;5.404;2022-12-18T04:41:47;19.23;;;11.07;;
13048;SDS011;6591;51.446;5.404;2022-12-18T04:44:14;17.77;;;11.50;;
13048;SDS011;6591;51.446;5.404;2022-12-18T04:46:41;19.10;;;11.10;;
13048;SDS011;6591;51.446;5.404;2022-12-18T04:49:08;17.53;;;11.07;;
13048;SDS011;6591;51.446;5.404;2022-12-18T04:51:36;18.77;;;11.13;;
13048;SDS011;6591;51.446;5.404;2022-12-18T04:54:04;22.03;;;11.90;;
13048;SDS011;6591;51.446;5.404;2022-12-18T04:56:31;20.17;;;11.97;;
13048;SDS011;6591;51.446;5.404;2022-12-18T04:58:59;18.67;;;11.43;;
13048;SDS011;6591;51.446;5.404;2022-12-18T05:01:26;18.37;;;11.90;;
13048;SDS011;6591;51.446;5.404;2022-12-18T05:04:00;17.80;;;10.57;;
13048;SDS011;6591;51.446;5.404;2022-12-18T05:06:28;16.17;;;10.37;;
13048;SDS011;6591;51.446;5.404;2022-12-18T05:08:55;18.83;;;11.60;;
13048;SDS011;6591;51.446;5.404;2022-12-18T05:11:22;19.03;;;10.53;;
13048;SDS011;6591;51.446;5.404;2022-12-18T05:13:49;18.33;;;11.67;;
13048;SDS011;6591;51.446;5.404;2022-12-18T05:16:16;18.93;;;10.03;;
13048;SDS011;6591;51.446;5.404;2022-12-18T05:18:43;19.73;;;11.07;;
13048;SDS011;6591;51.446;5.404;2022-12-18T05:21:10;17.67;;;11.00;;
13048;SDS011;6591;51.446;5.404;2022-12-18T05:23:37;19.87;;;11.40;;
13048;SDS011;6591;51.446;5.404;2022-12-18T05:26:05;19.97;;;11.17;;
13048;SDS011;6591;51.446;5.404;2022-12-18T05:28:34;16.43;;;10.80;;
13048;SDS011;6591;51.446;5.404;2022-12-18T05:31:03;19.87;;;10.33;;
13048;SDS011;6591;51.446;5.404;2022-12-18T05:33:32;17.13;;;10.53;;
13048;SDS011;6591;51.446;5.404;2022-12-18T05:36:01;16.60;;;10.23;;
13048;SDS011;6591;51.446;5.404;2022-12-18T05:38:32;19.87;;;11.00;;
13048;SDS011;6591;51.446;5.404;2022-12-18T05:41:02;17.53;;;10.07;;
13048;SDS011;6591;51.446;5.404;2022-12-18T05:43:30;19.33;;;10.77;;
13048;SDS011;6591;51.446;5.404;2022-12-18T05:45:57;16.03;;;10.00;;
13048;SDS011;6591;51.446;5.404;2022-12-18T05:48:30;16.73;;;10.67;;
13048;SDS011;6591;51.446;5.404;2022-12-18T05:51:02;18.30;;;10.10;;
13048;SDS011;6591;51.446;5.404;2022-12-18T05:53:32;17.83;;;11.27;;
13048;SDS011;6591;51.446;5.404;2022-12-18T05:56:00;18.67;;;10.63;;
13048;SDS011;6591;51.446;5.404;2022-12-18T05:58:30;20.70;;;10.60;;
13048;SDS011;6591;51.446;5.404;2022-12-18T06:01:05;17.50;;;10.23;;
13048;SDS011;6591;51.446;5.404;2022-12-18T06:03:53;17.83;;;10.67;;
13048;SDS011;6591;51.446;5.404;2022-12-18T06:06:25;15.87;;;11.13;;
13048;SDS011;6591;51.446;5.404;2022-12-18T06:08:54;17.57;;;10.80;;
13048;SDS011;6591;51.446;5.404;2022-12-18T06:11:23;16.83;;;9.70;;
13048;SDS011;6591;51.446;5.404;2022-12-18T06:13:53;17.07;;;9.80;;
13048;SDS011;6591;51.446;5.404;2022-12-18T06:16:24;17.77;;;11.10;;
13048;SDS011;6591;51.446;5.404;2022-12-18T06:18:55;18.07;;;10.73;;
13048;SDS011;6591;51.446;5.404;2022-12-18T06:21:27;18.10;;;10.77;;
13048;SDS011;6591;51.446;5.404;2022-12-18T06:23:55;17.23;;;10.40;;
13048;SDS011;6591;51.446;5.404;2022-12-18T06:26:22;15.63;;;9.67;;
13048;SDS011;6591;51.446;5.404;2022-12-18T06:28:53;16.70;;;10.10;;
13048;SDS011;6591;51.446;5.404;2022-12-18T06:31:20;16.83;;;10.67;;
13048;SDS011;6591;51.446;5.404;2022-12-18T06:33:47;17.93;;;10.40;;
13048;SDS011;6591;51.446;5.404;2022-12-18T06:36:14;19.10;;;10.90;;
13048;SDS011;6591;51.446;5.404;2022-12-18T06:38:43;15.40;;;9.43;;
13048;SDS011;6591;51.446;5.404;2022-12-18T06:41:11;17.63;;;10.17;;
13048;SDS011;6591;51.446;5.404;2022-12-18T06:43:41;17.07;;;9.73;;
13048;SDS011;6591;51.446;5.404;2022-12-18T06:46:09;16.13;;;9.93;;
13048;SDS011;6591;51.446;5.404;2022-12-18T06:48:37;17.40;;;10.17;;
13048;SDS011;6591;51.446;5.404;2022-12-18T06:51:04;18.23;;;10.90;;
13048;SDS011;6591;51.446;5.404;2022-12-18T06:53:32;18.97;;;10.03;;
13048;SDS011;6591;51.446;5.404;2022-12-18T06:56:00;17.03;;;9.90;;
13048;SDS011;6591;51.446;5.404;2022-12-18T06:58:36;17.53;;;10.40;;
13048;SDS011;6591;51.446;5.404;2022-12-18T07:01:05;16.17;;;10.23;;
13048;SDS011;6591;51.446;5.404;2022-12-18T07:03:36;19.80;;;10.63;;
13048;SDS011;6591;51.446;5.404;2022-12-18T07:06:16;17.27;;;10.20;;
13048;SDS011;6591;51.446;5.404;2022-12-18T07:08:46;18.43;;;10.47;;
13048;SDS011;6591;51.446;5.404;2022-12-18T07:11:14;19.20;;;10.30;;
13048;SDS011;6591;51.446;5.404;2022-12-18T07:13:43;16.50;;;10.60;;
13048;SDS011;6591;51.446;5.404;2022-12-18T07:16:12;17.13;;;9.97;;
13048;SDS011;6591;51.446;5.404;2022-12-18T07:18:50;19.80;;;11.30;;
13048;SDS011;6591;51.446;5.404;2022-12-18T07:21:18;17.70;;;10.60;;
13048;SDS011;6591;51.446;5.404;2022-12-18T07:23:46;21.20;;;11.17;;
13048;SDS011;6591;51.446;5.404;2022-12-18T07:26:15;24.23;;;11.37;;
13048;SDS011;6591;51.446;5.404;2022-12-18T07:28:45;18.67;;;10.67;;
13048;SDS011;6591;51.446;5.404;2022-12-18T07:31:13;18.13;;;11.03;;
13048;SDS011;6591;51.446;5.404;2022-12-18T07:33:47;22.53;;;11.87;;
13048;SDS011;6591;51.446;5.404;2022-12-18T07:36:14;19.57;;;10.60;;
13048;SDS011;6591;51.446;5.404;2022-12-18T07:38:42;20.80;;;12.33;;
13048;SDS011;6591;51.446;5.404;2022-12-18T07:41:10;19.60;;;10.77;;
13048;SDS011;6591;51.446;5.404;2022-12-18T07:43:40;18.93;;;10.37;;
13048;SDS011;6591;51.446;5.404;2022-12-18T07:46:08;19.90;;;11.90;;
13048;SDS011;6591;51.446;5.404;2022-12-18T07:48:39;23.30;;;11.27;;
13048;SDS011;6591;51.446;5.404;2022-12-18T07:51:08;20.27;;;12.17;;
13048;SDS011;6591;51.446;5.404;2022-12-18T07:53:39;19.10;;;11.13;;
13048;SDS011;6591;51.446;5.404;2022-12-18T07:56:09;23.37;;;13.03;;
13048;SDS011;6591;51.446;5.404;2022-12-18T07:58:56;21.77;;;11.87;;
13048;SDS011;6591;51.446;5.404;2022-12-18T08:01:27;21.03;;;11.20;;
13048;SDS011;6591;51.446;5.404;2022-12-18T08:03:54;18.17;;;11.50;;
13048;SDS011;6591;51.446;5.404;2022-12-18T08:06:22;21.97;;;11.53;;
13048;SDS011;6591;51.446;5.404;2022-12-18T08:08:50;18.87;;;11.40;;
13048;SDS011;6591;51.446;5.404;2022-12-18T08:11:19;19.37;;;11.60;;
13048;SDS011;6591;51.446;5.404;2022-12-18T08:13:47;18.63;;;11.33;;
13048;SDS011;6591;51.446;5.404;2022-12-18T08:16:15;20.53;;;11.13;;
13048;SDS011;6591;51.446;5.404;2022-12-18T08:18:42;21.33;;;11.00;;
13048;SDS011;6591;51.446;5.404;2022-12-18T08:21:10;21.00;;;11.87;;
13048;SDS011;6591;51.446;5.404;2022-12-18T08:23:48;20.00;;;11.70;;
13048;SDS011;6591;51.446;5.404;2022-12-18T08:26:21;19.13;;;10.77;;
13048;SDS011;6591;51.446;5.404;2022-12-18T08:28:49;22.20;;;11.73;;
13048;SDS011;6591;51.446;5.404;2022-12-18T08:31:17;18.13;;;10.87;;
13048;SDS011;6591;51.446;5.404;2022-12-18T08:33:47;17.70;;;11.03;;
13048;SDS011;6591;51.446;5.404;2022-12-18T08:36:16;18.73;;;10.83;;
13048;SDS011;6591;51.446;5.404;2022-12-18T08:38:43;16.77;;;10.50;;
13048;SDS011;6591;51.446;5.404;2022-12-18T08:41:11;22.50;;;12.80;;
13048;SDS011;6591;51.446;5.404;2022-12-18T08:43:40;19.07;;;11.97;;
13048;SDS011;6591;51.446;5.404;2022-12-18T08:46:35;19.33;;;11.00;;
13048;SDS011;6591;51.446;5.404;2022-12-18T08:49:06;20.73;;;11.90;;
13048;SDS011;6591;51.446;5.404;2022-12-18T08:51:35;20.63;;;12.50;;
13048;SDS011;6591;51.446;5.404;2022-12-18T08:54:03;19.27;;;11.87;;
13048;SDS011;6591;51.446;5.404;2022-12-18T08:56:32;19.23;;;11.63;;
13048;SDS011;6591;51.446;5.404;2022-12-18T08:58:59;21.77;;;12.33;;
13048;SDS011;6591;51.446;5.404;2022-12-18T09:01:26;19.33;;;11.50;;
13048;SDS011;6591;51.446;5.404;2022-12-18T09:03:53;17.57;;;11.13;;
13048;SDS011;6591;51.446;5.404;2022-12-18T09:06:21;20.10;;;12.20;;
13048;SDS011;6591;51.446;5.404;2022-12-18T09:08:49;21.83;;;11.80;;
13048;SDS011;6591;51.446;5.404;2022-12-18T09:11:20;21.00;;;12.63;;
13048;SDS011;6591;51.446;5.404;2022-12-18T09:13:50;18.30;;;11.40;;
13048;SDS011;6591;51.446;5.404;2022-12-18T09:16:18;20.77;;;13.20;;
13048;SDS011;6591;51.446;5.404;2022-12-18T09:18:46;21.60;;;12.00;;
13048;SDS011;6591;51.446;5.404;2022-12-18T09:21:15;19.10;;;11.93;;
13048;SDS011;6591;51.446;5.404;2022-12-18T09:23:49;20.53;;;12.00;;
13048;SDS011;6591;51.446;5.404;2022-12-18T09:26:17;20.23;;;12.30;;
13048;SDS011;6591;51.446;5.404;2022-12-18T09:28:45;19.10;;;11.70;;
13048;SDS011;6591;51.446;5.404;2022-12-18T09:31:15;17.53;;;11.93;;
13048;SDS011;6591;51.446;5.404;2022-12-18T09:33:44;20.23;;;12.40;;
13048;SDS011;6591;51.446;5.404;2022-12-18T09:36:12;19.43;;;12.43;;
13048;SDS011;6591;51.446;5.404;2022-12-18T09:38:42;20.87;;;11.73;;
13048;SDS011;6591;51.446;5.404;2022-12-18T09:41:30;20.73;;;12.23;;
13048;SDS011;6591;51.446;5.404;2022-12-18T09:47:09;20.27;;;11.53;;
13048;SDS011;6591;51.446;5.404;2022-12-18T09:49:46;18.67;;;12.10;;
13048;SDS011;6591;51.446;5.404;2022-12-18T09:55:16;19.00;;;12.73;;
13048;SDS011;6591;51.446;5.404;2022-12-18T09:58:13;18.40;;;11.77;;
13048;SDS011;6591;51.446;5.404;2022-12-18T10:00:45;20.03;;;13.67;;
13048;SDS011;6591;51.446;5.404;2022-12-18T10:03:13;19.63;;;13.17;;
13048;SDS011;6591;51.446;5.404;2022-12-18T10:12:01;20.23;;;12.80;;
13048;SDS011;6591;51.446;5.404;2022-12-18T10:14:57;20.40;;;12.77;;
13048;SDS011;6591;51.446;5.404;2022-12-18T10:17:49;19.73;;;12.87;;
13048;SDS011;6591;51.446;5.404;2022-12-18T10:20:46;20.50;;;12.90;;
13048;SDS011;6591;51.446;5.404;2022-12-18T10:26:03;21.37;;;14.37;;
13048;SDS011;6591;51.446;5.404;2022-12-18T10:28:38;20.43;;;13.33;;
13048;SDS011;6591;51.446;5.404;2022-12-18T10:31:13;21.90;;;13.73;;
13048;SDS011;6591;51.446;5.404;2022-12-18T10:33:50;20.30;;;12.77;;
13048;SDS011;6591;51.446;5.404;2022-12-18T10:36:20;19.23;;;13.37;;
13048;SDS011;6591;51.446;5.404;2022-12-18T10:38:50;22.03;;;13.70;;
13048;SDS011;6591;51.446;5.404;2022-12-18T10:43:47;20.70;;;13.77;;
13048;SDS011;6591;51.446;5.404;2022-12-18T10:46:19;21.83;;;13.03;;
13048;SDS011;6591;51.446;5.404;2022-12-18T10:51:21;18.27;;;13.03;;
13048;SDS011;6591;51.446;5.404;2022-12-18T10:54:01;20.67;;;12.70;;
13048;SDS011;6591;51.446;5.404;2022-12-18T10:56:40;18.83;;;12.83;;
13048;SDS011;6591;51.446;5.404;2022-12-18T10:59:10;18.53;;;12.33;;
13048;SDS011;6591;51.446;5.404;2022-12-18T11:04:25;19.43;;;12.83;;
13048;SDS011;6591;51.446;5.404;2022-12-18T11:06:57;19.97;;;12.80;;
13048;SDS011;6591;51.446;5.404;2022-12-18T11:09:30;18.77;;;12.83;;
13048;SDS011;6591;51.446;5.404;2022-12-18T11:12:04;20.07;;;13.10;;
13048;SDS011;6591;51.446;5.404;2022-12-18T11:17:27;19.70;;;12.97;;
13048;SDS011;6591;51.446;5.404;2022-12-18T11:20:02;19.10;;;13.23;;
13048;SDS011;6591;51.446;5.404;2022-12-18T11:22:55;16.87;;;12.00;;
13048;SDS011;6591;51.446;5.404;2022-12-18T11:25:38;17.03;;;11.77;;
13048;SDS011;6591;51.446;5.404;2022-12-18T11:28:25;21.67;;;12.67;;
13048;SDS011;6591;51.446;5.404;2022-12-18T11:31:23;18.30;;;13.37;;
13048;SDS011;6591;51.446;5.404;2022-12-18T11:36:48;20.37;;;13.53;;
13048;SDS011;6591;51.446;5.404;2022-12-18T11:42:20;20.37;;;13.53;;
13048;SDS011;6591;51.446;5.404;2022-12-18T11:50:24;18.90;;;12.80;;
13048;SDS011;6591;51.446;5.404;2022-12-18T11:52:57;18.20;;;13.10;;
13048;SDS011;6591;51.446;5.404;2022-12-18T11:55:42;18.13;;;12.00;;
13048;SDS011;6591;51.446;5.404;2022-12-18T12:15:58;20.40;;;13.27;;
13048;SDS011;6591;51.446;5.404;2022-12-18T12:21:40;18.53;;;12.73;;
13048;SDS011;6591;51.446;5.404;2022-12-18T12:24:34;17.50;;;12.07;;
13048;SDS011;6591;51.446;5.404;2022-12-18T12:39:28;16.77;;;11.80;;
13048;SDS011;6591;51.446;5.404;2022-12-18T12:42:05;18.03;;;12.90;;
13048;SDS011;6591;51.446;5.404;2022-12-18T12:45:05;17.87;;;12.77;;
13048;SDS011;6591;51.446;5.404;2022-12-18T12:47:46;17.93;;;12.97;;
13048;SDS011;6591;51.446;5.404;2022-12-18T12:50:17;19.23;;;12.90;;
13048;SDS011;6591;51.446;5.404;2022-12-18T12:52:52;18.37;;;12.30;;
13048;SDS011;6591;51.446;5.404;2022-12-18T12:55:27;20.47;;;13.67;;
13048;SDS011;6591;51.446;5.404;2022-12-18T12:58:19;20.30;;;13.37;;
13048;SDS011;6591;51.446;5.404;2022-12-18T13:04:18;19.00;;;12.13;;
13048;SDS011;6591;51.446;5.404;2022-12-18T13:07:19;17.60;;;12.53;;
13048;SDS011;6591;51.446;5.404;2022-12-18T13:10:12;16.50;;;11.50;;
13048;SDS011;6591;51.446;5.404;2022-12-18T13:15:50;16.80;;;12.23;;
13048;SDS011;6591;51.446;5.404;2022-12-18T13:18:33;16.03;;;11.70;;
13048;SDS011;6591;51.446;5.404;2022-12-18T13:21:02;17.97;;;12.10;;
13048;SDS011;6591;51.446;5.404;2022-12-18T13:23:54;20.47;;;12.73;;
13048;SDS011;6591;51.446;5.404;2022-12-18T13:28:55;18.50;;;12.03;;
13048;SDS011;6591;51.446;5.404;2022-12-18T13:34:19;17.43;;;11.97;;
13048;SDS011;6591;51.446;5.404;2022-12-18T13:36:54;19.27;;;13.00;;
13048;SDS011;6591;51.446;5.404;2022-12-18T13:39:43;16.77;;;12.50;;
13048;SDS011;6591;51.446;5.404;2022-12-18T13:44:58;18.40;;;12.30;;
13048;SDS011;6591;51.446;5.404;2022-12-18T13:47:33;16.13;;;12.33;;
13048;SDS011;6591;51.446;5.404;2022-12-18T13:50:11;16.93;;;11.67;;
13048;SDS011;6591;51.446;5.404;2022-12-18T13:53:00;17.10;;;12.50;;
13048;SDS011;6591;51.446;5.404;2022-12-18T13:55:31;14.90;;;11.10;;
13048;SDS011;6591;51.446;5.404;2022-12-18T13:58:05;16.30;;;11.47;;
13048;SDS011;6591;51.446;5.404;2022-12-18T14:00:33;18.73;;;11.87;;
13048;SDS011;6591;51.446;5.404;2022-12-18T14:03:00;19.53;;;12.73;;
13048;SDS011;6591;51.446;5.404;2022-12-18T14:05:29;19.40;;;12.70;;
13048;SDS011;6591;51.446;5.404;2022-12-18T14:08:06;18.07;;;12.73;;
13048;SDS011;6591;51.446;5.404;2022-12-18T14:10:43;18.13;;;12.00;;
13048;SDS011;6591;51.446;5.404;2022-12-18T14:13:18;19.10;;;12.13;;
13048;SDS011;6591;51.446;5.404;2022-12-18T14:16:03;15.43;;;11.00;;
13048;SDS011;6591;51.446;5.404;2022-12-18T14:18:48;17.70;;;12.13;;
13048;SDS011;6591;51.446;5.404;2022-12-18T14:21:40;24.33;;;11.47;;
13048;SDS011;6591;51.446;5.404;2022-12-18T14:24:17;17.40;;;12.40;;
13048;SDS011;6591;51.446;5.404;2022-12-18T14:26:48;17.10;;;11.77;;
13048;SDS011;6591;51.446;5.404;2022-12-18T14:29:24;17.90;;;11.67;;
13048;SDS011;6591;51.446;5.404;2022-12-18T14:34:51;15.27;;;11.60;;
13048;SDS011;6591;51.446;5.404;2022-12-18T14:37:21;20.23;;;12.37;;
13048;SDS011;6591;51.446;5.404;2022-12-18T14:39:58;16.10;;;11.77;;
13048;SDS011;6591;51.446;5.404;2022-12-18T14:42:36;17.53;;;12.07;;
13048;SDS011;6591;51.446;5.404;2022-12-18T14:48:18;19.40;;;12.67;;
13048;SDS011;6591;51.446;5.404;2022-12-18T14:51:00;18.03;;;11.90;;
13048;SDS011;6591;51.446;5.404;2022-12-18T14:53:33;20.20;;;12.60;;
13048;SDS011;6591;51.446;5.404;2022-12-18T14:56:27;16.03;;;12.43;;
13048;SDS011;6591;51.446;5.404;2022-12-18T14:58:59;18.07;;;11.93;;
13048;SDS011;6591;51.446;5.404;2022-12-18T15:01:34;16.83;;;12.27;;
13048;SDS011;6591;51.446;5.404;2022-12-18T15:04:05;16.43;;;11.83;;
13048;SDS011;6591;51.446;5.404;2022-12-18T15:09:33;18.13;;;11.63;;
13048;SDS011;6591;51.446;5.404;2022-12-18T15:12:01;16.77;;;11.57;;
13048;SDS011;6591;51.446;5.404;2022-12-18T15:17:05;17.50;;;12.03;;
13048;SDS011;6591;51.446;5.404;2022-12-18T15:19:57;15.50;;;11.33;;
13048;SDS011;6591;51.446;5.404;2022-12-18T15:22:30;15.60;;;11.83;;
13048;SDS011;6591;51.446;5.404;2022-12-18T15:25:03;16.37;;;11.83;;
13048;SDS011;6591;51.446;5.404;2022-12-18T15:27:52;15.93;;;11.80;;
13048;SDS011;6591;51.446;5.404;2022-12-18T15:30:20;17.53;;;12.30;;
13048;SDS011;6591;51.446;5.404;2022-12-18T15:32:50;19.00;;;12.93;;
13048;SDS011;6591;51.446;5.404;2022-12-18T15:35:39;16.73;;;11.87;;
13048;SDS011;6591;51.446;5.404;2022-12-18T15:38:12;16.70;;;11.70;;
13048;SDS011;6591;51.446;5.404;2022-12-18T15:40:39;17.47;;;12.37;;
13048;SDS011;6591;51.446;5.404;2022-12-18T15:43:07;17.17;;;12.10;;
13048;SDS011;6591;51.446;5.404;2022-12-18T15:45:54;17.23;;;12.50;;
13048;SDS011;6591;51.446;5.404;2022-12-18T15:48:21;19.33;;;11.93;;
13048;SDS011;6591;51.446;5.404;2022-12-18T15:50:52;17.10;;;12.33;;
13048;SDS011;6591;51.446;5.404;2022-12-18T15:53:23;17.67;;;11.90;;
13048;SDS011;6591;51.446;5.404;2022-12-18T15:55:59;19.00;;;12.63;;
13048;SDS011;6591;51.446;5.404;2022-12-18T15:58:45;16.13;;;11.80;;
13048;SDS011;6591;51.446;5.404;2022-12-18T16:01:25;18.87;;;12.43;;
13048;SDS011;6591;51.446;5.404;2022-12-18T16:03:55;17.83;;;11.60;;
13048;SDS011;6591;51.446;5.404;2022-12-18T16:06:23;16.67;;;12.30;;
13048;SDS011;6591;51.446;5.404;2022-12-18T16:08:50;16.87;;;12.47;;
13048;SDS011;6591;51.446;5.404;2022-12-18T16:11:21;18.27;;;12.37;;
13048;SDS011;6591;51.446;5.404;2022-12-18T16:14:12;16.93;;;11.73;;
13048;SDS011;6591;51.446;5.404;2022-12-18T16:16:55;17.03;;;11.80;;
13048;SDS011;6591;51.446;5.404;2022-12-18T16:19:25;19.43;;;13.07;;
13048;SDS011;6591;51.446;5.404;2022-12-18T16:21:54;18.70;;;12.13;;
13048;SDS011;6591;51.446;5.404;2022-12-18T16:24:24;17.77;;;12.37;;
13048;SDS011;6591;51.446;5.404;2022-12-18T16:26:55;19.53;;;13.43;;
13048;SDS011;6591;51.446;5.404;2022-12-18T16:29:26;17.50;;;12.40;;
13048;SDS011;6591;51.446;5.404;2022-12-18T16:31:58;19.07;;;13.43;;
13048;SDS011;6591;51.446;5.404;2022-12-18T16:34:30;18.10;;;12.93;;
13048;SDS011;6591;51.446;5.404;2022-12-18T16:37:02;18.87;;;13.37;;
13048;SDS011;6591;51.446;5.404;2022-12-18T16:39:33;19.90;;;13.30;;
13048;SDS011;6591;51.446;5.404;2022-12-18T16:42:05;18.70;;;12.63;;
13048;SDS011;6591;51.446;5.404;2022-12-18T16:44:46;18.70;;;12.13;;
13048;SDS011;6591;51.446;5.404;2022-12-18T16:47:15;18.40;;;12.67;;
13048;SDS011;6591;51.446;5.404;2022-12-18T16:49:43;18.43;;;12.67;;
13048;SDS011;6591;51.446;5.404;2022-12-18T16:52:12;22.20;;;13.20;;
13048;SDS011;6591;51.446;5.404;2022-12-18T16:54:40;17.60;;;12.70;;
13048;SDS011;6591;51.446;5.404;2022-12-18T16:57:08;20.33;;;12.80;;
13048;SDS011;6591;51.446;5.404;2022-12-18T16:59:38;18.63;;;12.87;;
13048;SDS011;6591;51.446;5.404;2022-12-18T17:02:08;19.53;;;13.00;;
13048;SDS011;6591;51.446;5.404;2022-12-18T17:04:49;17.27;;;12.13;;
13048;SDS011;6591;51.446;5.404;2022-12-18T17:07:19;18.87;;;12.50;;
13048;SDS011;6591;51.446;5.404;2022-12-18T17:09:46;19.43;;;12.70;;